Black Mountain, NC

2:18 AM EDT on September 18, 2014 (GMT -0400)
Timber Park | Change Station
CLOSE
Current Station
Personal Weather Station
Location: Black Mountain, NC
Elevation: 2615 ft
Nearby Weather Stations

Elev 2615 ft 35.60 °N, 82.31 °W | Updated 4 seconds ago

Mostly Cloudy
Mostly Cloudy
56.2 °F
Feels Like 56.2 °F
N
0.0
Wind Variable Wind from SSW
Gusts 0.0 mph

Today
High -- | Low -- °F
--% Chance of Precip.
Yesterday
High -- | Low -- °F
Precip. -- in
7:14 AM 7:31 PM
Waning Crescent, 29% visible
Pressure 29.95 in
Visibility 7.0 miles
Clouds Overcast 400 ft
Dew Point 56 °F
Humidity 98%
Rainfall 0.00 in
Snow Depth Not available.
UV 0 out of 12
Pollen 6.70 out of 12
Ozone Good
PM2.5 Good
Flu Activity Not available.
METAR KAVL 180554Z AUTO 00000KT 7SM OVC004 17/16 A3001 RMK AO2 SLP141 60000 T01670156 10194 20161 58006

More Conditions Fewer Conditions

Pressure 29.95 in
Visibility 7.0 miles
Clouds Overcast 400 ft
Dew Point 56 °F
Humidity 98%
Rainfall 0.00 in
Snow Depth Not available.
UV 0 out of 12
Pollen 6.70 out of 12
Ozone Good
PM2.5 Good
Flu Activity Not available.
METAR KAVL 180554Z AUTO 00000KT 7SM OVC004 17/16 A3001 RMK AO2 SLP141 60000 T01670156 10194 20161 58006

More Conditions Fewer Conditions

10-Day Weather Forecast

Almanac

Astronomy

Sep. 18, 2014 Rise Set
Actual Time 7:14 AM EDT 7:31 PM EDT
Civil Twilight 6:48 AM EDT 7:57 PM EDT
Nautical Twilight 6:18 AM EDT 8:27 PM EDT
Astronomical Twilight 5:48 AM EDT 8:57 PM EDT
Moon 2:13 AM EDT 4:14 PM EDT
Length of Visible Light 13h 08m
Length of Day
12h 17m
Tomorrow will be 2m 13s shorter.
Waning Crescent, 29% of the Moon is Illuminated
Today
Waning Crescent
Sep 24
New
Oct 1
First Quarter
Oct 8
Full
Oct 15
Last Quarter

Today's Extremes

State Highs State Lows

Community

WunderPhotos

Upload Photos

1,754,298 photos uploaded!

Nearby

Air Quality

  Air Quality AQ Index Pollutant
Yesterday Good
PM2.5
Yesterday Good
OZONE
Current Good
PM2.5
Current Good
OZONE
Thursday Good
PM2.5
Thursday Good
OZONE
Friday Good
PM2.5
Friday Good
OZONE
Saturday Good
PM2.5
Saturday Good
OZONE

Snow Depth

Station Depth Elevation
No new snow has been reported.

Earthquake Activity

City Distance Mag. Time & Date
No recent earthquake activity has been reported nearby.
Minimum magnitude displayed is 2.5.

Coastal Water Temperatures

Place Temperature
No Stations Reporting

Nearby Weather Stations